Time;durP1;ratioP1;P1;durP2;ratioP2;P2;SDS_P1;SDS_P2;PMS_P1;PMS_P2;Temp;Humidity;BMP_temperature;BMP_pressure;BME280_temperature;BME280_humidity;BME280_pressure;Samples;Min_cycle;Max_cycle;Signal;HPM_P1;HPM_P2
2022/07/14 00:02:26;;;;;;;2.30;1.20;;;22.70;66.50;;;;;;5108255;28;20572;-73
2022/07/14 00:05:13;;;;;;;2.57;1.40;;;22.60;67.10;;;;;;5106459;28;20494;-73
2022/07/14 00:07:58;;;;;;;3.63;1.30;;;22.60;68.20;;;;;;5108886;27;20475;-73
2022/07/14 00:10:44;;;;;;;4.50;1.73;;;22.50;67.90;;;;;;5108980;27;21153;-73
2022/07/14 00:13:29;;;;;;;2.20;1.30;;;22.50;67.00;;;;;;5101722;27;20469;-73
2022/07/14 00:16:15;;;;;;;4.10;1.80;;;22.50;67.60;;;;;;5110112;28;20464;-73
2022/07/14 00:19:01;;;;;;;9.70;1.90;;;22.40;68.80;;;;;;5108041;27;20966;-73
2022/07/14 00:21:48;;;;;;;3.27;1.87;;;22.30;68.20;;;;;;5112612;28;20417;-73
2022/07/14 00:24:34;;;;;;;5.10;1.80;;;22.30;69.00;;;;;;5106281;27;20441;-73
2022/07/14 00:27:19;;;;;;;4.73;1.60;;;22.20;68.80;;;;;;5106126;27;20575;-73
2022/07/14 00:30:06;;;;;;;2.43;1.60;;;22.20;69.10;;;;;;5108134;28;20911;-73
2022/07/14 00:32:54;;;;;;;3.70;1.50;;;22.10;69.70;;;;;;5101421;28;20887;-73
2022/07/14 00:35:40;;;;;;;7.90;1.50;;;22.10;69.60;;;;;;5105333;28;20449;-73
2022/07/14 00:38:27;;;;;;;3.77;1.60;;;22.10;69.70;;;;;;5106946;27;20445;-73
2022/07/14 00:41:12;;;;;;;2.93;1.60;;;22.00;69.90;;;;;;5107100;28;20452;-73
2022/07/14 00:43:58;;;;;;;4.87;1.60;;;21.90;70.80;;;;;;5105407;28;20574;-73
2022/07/14 00:46:44;;;;;;;9.30;1.97;;;21.80;71.30;;;;;;5101093;28;20774;-73
2022/07/14 00:49:37;;;;;;;3.43;1.47;;;21.80;70.50;;;;;;5106295;28;20523;-73
2022/07/14 00:52:23;;;;;;;2.70;1.47;;;21.60;70.70;;;;;;5107366;28;20608;-73
2022/07/14 00:55:12;;;;;;;4.87;1.70;;;21.60;71.50;;;;;;5106768;27;20437;-73
2022/07/14 00:57:58;;;;;;;3.57;2.07;;;21.50;71.00;;;;;;5101576;28;20449;-73
2022/07/14 01:00:44;;;;;;;3.37;1.63;;;21.40;72.40;;;;;;5110502;28;20591;-73
2022/07/14 01:03:30;;;;;;;2.50;1.80;;;21.30;73.40;;;;;;5104125;28;20449;-72
2022/07/14 01:06:15;;;;;;;2.10;1.50;;;21.30;73.70;;;;;;5106032;28;20484;-72
2022/07/14 01:09:01;;;;;;;4.80;2.30;;;21.20;73.80;;;;;;5104392;27;20976;-73
2022/07/14 01:11:48;;;;;;;3.80;1.80;;;21.20;74.30;;;;;;5109587;28;20437;-73
2022/07/14 01:14:35;;;;;;;3.47;2.00;;;21.20;75.50;;;;;;5105458;28;20481;-73
2022/07/14 01:17:20;;;;;;;6.70;1.73;;;21.10;75.50;;;;;;5104027;28;20705;-73
2022/07/14 01:20:08;;;;;;;2.47;1.57;;;21.10;75.50;;;;;;5110283;27;20460;-73
2022/07/14 01:22:56;;;;;;;4.80;2.03;;;21.10;75.50;;;;;;5103838;28;20453;-73
2022/07/14 01:25:41;;;;;;;5.60;1.77;;;20.90;76.60;;;;;;5107821;28;20489;-73
2022/07/14 01:28:27;;;;;;;3.47;2.20;;;20.70;78.60;;;;;;5103791;28;20441;-73
2022/07/14 01:31:13;;;;;;;4.43;2.13;;;20.70;79.80;;;;;;5105734;27;20460;-72
2022/07/14 01:33:58;;;;;;;3.07;2.27;;;20.70;79.60;;;;;;5105057;27;20606;-73
2022/07/14 01:36:44;;;;;;;2.93;2.17;;;20.80;79.30;;;;;;5105326;27;20666;-73
2022/07/14 01:39:31;;;;;;;3.80;2.27;;;20.90;79.20;;;;;;5101427;28;20841;-73
2022/07/14 01:42:17;;;;;;;4.50;2.10;;;20.90;79.00;;;;;;5107660;28;20958;-73
2022/07/14 01:45:03;;;;;;;2.33;1.63;;;20.80;79.30;;;;;;5111867;27;20796;-73
2022/07/14 01:47:48;;;;;;;6.63;1.70;;;20.90;78.70;;;;;;5105001;28;20853;-73
2022/07/14 01:50:34;;;;;;;8.93;2.50;;;20.70;79.10;;;;;;5105460;27;20445;-73
2022/07/14 01:53:19;;;;;;;4.13;2.43;;;20.60;79.80;;;;;;5114572;27;20449;-73
2022/07/14 01:56:07;;;;;;;3.83;2.10;;;20.50;80.00;;;;;;5103608;28;20523;-73
2022/07/14 01:58:53;;;;;;;5.80;2.20;;;20.50;80.40;;;;;;5100801;28;20456;-72
2022/07/14 02:01:41;;;;;;;3.70;1.90;;;20.50;80.50;;;;;;5105137;28;20971;-72
2022/07/14 02:04:27;;;;;;;3.20;2.10;;;20.30;81.00;;;;;;5106753;28;20944;-73
2022/07/14 02:07:12;;;;;;;3.63;2.00;;;20.30;81.90;;;;;;5103434;28;20464;-73
2022/07/14 02:13:03;;;;;;;3.30;2.10;;;20.10;82.90;;;;;;5097600;28;20494;-72
2022/07/14 02:15:49;;;;;;;3.73;1.90;;;20.10;83.40;;;;;;5095912;28;20470;-72
2022/07/14 02:18:34;;;;;;;3.10;2.00;;;20.10;84.00;;;;;;5104552;28;20998;-73
2022/07/14 02:21:20;;;;;;;5.60;2.40;;;19.90;84.60;;;;;;5106968;28;20586;-72
2022/07/14 02:24:06;;;;;;;3.57;2.23;;;19.80;86.20;;;;;;5107520;28;20429;-73
2022/07/14 02:26:52;;;;;;;5.50;2.67;;;19.80;86.70;;;;;;5103828;28;20461;-73
2022/07/14 02:29:40;;;;;;;3.60;2.40;;;19.80;87.10;;;;;;5103033;28;20963;-73
2022/07/14 02:32:25;;;;;;;5.30;1.90;;;19.90;87.20;;;;;;5105041;28;20441;-72
2022/07/14 02:35:11;;;;;;;3.63;2.10;;;20.00;86.60;;;;;;5108894;28;20607;-73
2022/07/14 02:37:56;;;;;;;4.10;2.17;;;20.10;86.20;;;;;;5101000;28;20519;-73
2022/07/14 02:40:42;;;;;;;7.53;2.50;;;20.10;86.30;;;;;;5106708;28;20518;-72
2022/07/14 02:43:28;;;;;;;4.97;2.20;;;20.10;86.40;;;;;;5109373;28;20567;-73
2022/07/14 02:46:16;;;;;;;3.53;1.97;;;19.90;86.70;;;;;;5101916;28;20464;-72
2022/07/14 02:49:02;;;;;;;9.03;2.30;;;19.80;87.60;;;;;;5108335;28;20494;-72
2022/07/14 02:51:47;;;;;;;5.47;2.33;;;19.70;88.50;;;;;;5109334;28;20578;-72
2022/07/14 02:54:34;;;;;;;7.03;2.53;;;19.60;89.40;;;;;;5102061;28;21074;-72
2022/07/14 02:57:19;;;;;;;5.70;2.70;;;19.50;90.00;;;;;;5101870;28;20472;-72
2022/07/14 03:00:07;;;;;;;4.77;2.50;;;19.50;90.50;;;;;;5099745;28;20918;-72
2022/07/14 03:02:55;;;;;;;3.77;2.40;;;19.50;90.90;;;;;;5103366;28;20444;-72
2022/07/14 03:05:41;;;;;;;4.23;2.60;;;19.30;91.60;;;;;;5104518;28;20473;-73
2022/07/14 03:08:26;;;;;;;7.40;2.37;;;19.20;92.30;;;;;;5104547;28;20457;-73
2022/07/14 03:11:12;;;;;;;7.33;2.90;;;19.20;92.90;;;;;;5107862;28;20486;-72
2022/07/14 03:13:59;;;;;;;4.47;2.30;;;19.10;93.60;;;;;;5104638;28;20839;-72
2022/07/14 03:16:45;;;;;;;3.17;2.40;;;19.10;94.10;;;;;;5102598;28;20464;-73
2022/07/14 03:19:31;;;;;;;3.63;2.10;;;19.10;94.40;;;;;;5109568;28;20468;-73
2022/07/14 03:22:17;;;;;;;5.17;2.60;;;19.10;94.70;;;;;;5106952;28;20810;-73
2022/07/14 03:25:05;;;;;;;17.27;3.33;;;19.10;94.80;;;;;;5106166;28;20538;-73
2022/07/14 03:27:51;;;;;;;7.83;2.80;;;19.20;94.40;;;;;;5110169;28;20483;-73
2022/07/14 03:30:37;;;;;;;5.20;2.73;;;19.20;94.50;;;;;;5110598;28;20437;-72
2022/07/14 03:33:23;;;;;;;5.37;2.60;;;19.30;94.40;;;;;;5108792;28;20957;-73
2022/07/14 03:36:11;;;;;;;6.03;2.17;;;19.40;94.20;;;;;;5104468;28;20825;-72
2022/07/14 03:38:57;;;;;;;4.57;2.53;;;19.30;94.10;;;;;;5109883;28;20440;-73
2022/07/14 03:41:42;;;;;;;3.97;2.70;;;19.30;94.20;;;;;;5109321;28;20498;-73
2022/07/14 03:44:28;;;;;;;10.97;2.67;;;19.40;94.20;;;;;;5106604;28;20555;-73
2022/07/14 03:47:13;;;;;;;3.97;2.60;;;19.30;94.20;;;;;;5106054;28;20464;-72
2022/07/14 03:49:59;;;;;;;5.93;2.80;;;19.20;94.40;;;;;;5111351;28;20478;-72
2022/07/14 03:52:47;;;;;;;3.13;2.30;;;19.10;94.80;;;;;;5101912;28;20479;-72
2022/07/14 03:55:32;;;;;;;4.40;2.67;;;19.10;94.90;;;;;;5107406;27;20476;-72
2022/07/14 03:58:18;;;;;;;4.33;2.70;;;19.00;95.10;;;;;;5108149;28;20457;-72
2022/07/14 04:01:04;;;;;;;4.53;3.00;;;18.90;95.80;;;;;;5109063;28;20465;-73
2022/07/14 04:03:50;;;;;;;3.77;2.73;;;19.00;96.10;;;;;;5102704;27;20445;-72
2022/07/14 04:06:36;;;;;;;3.07;2.47;;;18.90;96.20;;;;;;5105400;28;20456;-72
2022/07/14 04:09:23;;;;;;;5.30;2.87;;;18.80;96.60;;;;;;5111881;27;20448;-72
2022/07/14 04:12:08;;;;;;;5.50;2.87;;;18.70;98.10;;;;;;5111319;27;20440;-72
2022/07/14 04:14:54;;;;;;;3.03;2.63;;;18.70;98.50;;;;;;5106444;27;20530;-72
2022/07/14 04:17:40;;;;;;;4.67;3.30;;;18.80;98.90;;;;;;5106894;28;21104;-72
2022/07/14 04:20:26;;;;;;;4.47;2.67;;;18.70;99.70;;;;;;5110029;28;20452;-73
2022/07/14 04:23:12;;;;;;;4.57;2.70;;;18.70;99.90;;;;;;5109256;28;20582;-72
2022/07/14 04:25:59;;;;;;;8.17;3.20;;;18.90;99.90;;;;;;5106300;27;20987;-72
2022/07/14 04:28:45;;;;;;;4.60;2.67;;;18.80;99.90;;;;;;5108008;28;20453;-73
2022/07/14 04:31:30;;;;;;;5.37;2.33;;;18.90;99.90;;;;;;5107885;28;20440;-73
2022/07/14 04:34:16;;;;;;;4.13;2.80;;;18.90;99.90;;;;;;5108507;27;20516;-73
2022/07/14 04:37:02;;;;;;;3.80;2.53;;;19.10;99.90;;;;;;5102845;28;20448;-73
2022/07/14 04:39:47;;;;;;;3.47;2.63;;;19.20;99.90;;;;;;5108665;27;20540;-72
2022/07/14 04:42:35;;;;;;;4.30;2.20;;;19.30;99.90;;;;;;5107714;27;20441;-73
2022/07/14 04:45:22;;;;;;;7.30;2.60;;;19.40;99.90;;;;;;5107296;27;20922;-72
2022/07/14 04:48:08;;;;;;;4.17;2.57;;;19.50;99.70;;;;;;5106493;28;20468;-72
2022/07/14 04:53:57;;;;;;;4.27;3.00;;;19.60;99.20;;;;;;5105666;27;20995;-73
2022/07/14 04:56:43;;;;;;;9.40;3.03;;;19.70;99.20;;;;;;5107901;27;20543;-72
2022/07/14 04:59:29;;;;;;;3.40;2.70;;;19.70;99.80;;;;;;5106543;28;20487;-72
2022/07/14 05:02:15;;;;;;;5.50;3.33;;;19.70;99.60;;;;;;5108452;27;20448;-73
2022/07/14 05:05:01;;;;;;;4.33;3.00;;;19.70;99.90;;;;;;5104602;27;20809;-72
2022/07/14 05:07:47;;;;;;;5.50;2.70;;;19.70;99.90;;;;;;5109031;28;20567;-73
2022/07/14 05:10:32;;;;;;;3.97;3.00;;;19.70;99.90;;;;;;5107534;28;20809;-73
2022/07/14 05:13:18;;;;;;;7.00;3.30;;;19.90;99.90;;;;;;5109278;28;20526;-72
2022/07/14 05:16:05;;;;;;;4.27;2.93;;;19.90;99.90;;;;;;5103942;28;20510;-73
2022/07/14 05:18:51;;;;;;;5.50;2.60;;;20.00;99.90;;;;;;5109043;27;20452;-73
2022/07/14 05:21:38;;;;;;;3.50;2.70;;;20.00;99.90;;;;;;5108129;28;21068;-72
2022/07/14 05:24:24;;;;;;;5.50;2.90;;;20.10;99.90;;;;;;5101138;28;20441;-72
2022/07/14 05:27:09;;;;;;;3.20;2.90;;;20.20;99.90;;;;;;5104111;28;20476;-72
2022/07/14 05:29:55;;;;;;;10.13;3.50;;;20.30;99.90;;;;;;5107548;27;20433;-73
2022/07/14 05:32:43;;;;;;;4.73;3.10;;;20.30;99.90;;;;;;5107540;27;20436;-72
2022/07/14 05:35:29;;;;;;;5.03;2.50;;;20.30;99.90;;;;;;5104496;27;20488;-73
2022/07/14 05:38:14;;;;;;;3.73;2.67;;;20.20;99.90;;;;;;5107132;27;20460;-72
2022/07/14 05:41:01;;;;;;;5.83;2.87;;;20.20;99.90;;;;;;5109109;28;20441;-72
2022/07/14 05:43:47;;;;;;;5.20;2.87;;;20.20;99.90;;;;;;5106105;27;20437;-73
2022/07/14 05:46:32;;;;;;;7.83;3.20;;;20.20;99.90;;;;;;5103618;28;20919;-72
2022/07/14 05:49:19;;;;;;;7.13;3.13;;;20.30;99.90;;;;;;5111863;27;20511;-73
2022/07/14 05:52:05;;;;;;;6.30;2.90;;;20.30;99.90;;;;;;5108757;28;20606;-72
2022/07/14 05:54:51;;;;;;;4.17;3.13;;;20.40;99.90;;;;;;5103678;27;20472;-72
2022/07/14 05:57:36;;;;;;;7.07;2.90;;;20.50;99.90;;;;;;5106354;27;21000;-72
2022/07/14 06:00:22;;;;;;;4.20;2.97;;;20.50;99.90;;;;;;5107828;28;20502;-72
2022/07/14 06:03:08;;;;;;;8.00;4.00;;;20.50;99.90;;;;;;5105901;28;20444;-72
2022/07/14 06:05:55;;;;;;;4.00;2.90;;;20.60;99.90;;;;;;5106944;28;20452;-73
2022/07/14 06:08:41;;;;;;;4.00;3.13;;;20.70;99.90;;;;;;5107234;28;20558;-72
2022/07/14 06:11:27;;;;;;;4.20;3.07;;;20.60;98.60;;;;;;5105446;28;20479;-73
2022/07/14 06:14:13;;;;;;;5.50;3.40;;;20.80;98.10;;;;;;5096362;28;20445;-73
2022/07/14 06:16:59;;;;;;;4.53;2.90;;;20.90;98.00;;;;;;5107446;28;20586;-72
2022/07/14 06:19:45;;;;;;;6.27;3.03;;;21.00;96.00;;;;;;5106042;27;20452;-72
2022/07/14 06:22:32;;;;;;;4.77;3.07;;;21.20;96.00;;;;;;5105002;28;20452;-73
2022/07/14 06:25:18;;;;;;;5.23;3.37;;;21.30;95.90;;;;;;5100338;28;20498;-72
2022/07/14 06:28:04;;;;;;;6.13;3.33;;;21.30;95.10;;;;;;5107468;28;20858;-73
2022/07/14 06:30:49;;;;;;;9.43;2.60;;;21.50;96.30;;;;;;5110571;28;21010;-72
2022/07/14 06:33:35;;;;;;;4.60;2.97;;;21.60;96.80;;;;;;5103831;28;20814;-72
2022/07/14 06:36:21;;;;;;;4.07;2.80;;;21.80;96.90;;;;;;5104172;28;20468;-72
2022/07/14 06:39:08;;;;;;;13.23;2.93;;;21.90;93.20;;;;;;5101441;28;20470;-72
2022/07/14 06:41:54;;;;;;;6.10;3.10;;;21.90;92.30;;;;;;5106643;28;20430;-72
2022/07/14 06:44:39;;;;;;;12.03;2.97;;;22.00;91.20;;;;;;5104011;28;20802;-72
2022/07/14 06:47:25;;;;;;;6.00;2.87;;;22.10;92.30;;;;;;5104937;28;20956;-73
2022/07/14 06:50:11;;;;;;;4.83;2.77;;;22.20;92.70;;;;;;5100058;28;20437;-72
2022/07/14 06:52:57;;;;;;;6.80;2.93;;;22.30;92.70;;;;;;5099420;27;20537;-73
2022/07/14 06:55:44;;;;;;;6.87;2.93;;;22.40;93.10;;;;;;5104868;27;20468;-73
2022/07/14 06:58:30;;;;;;;4.10;3.03;;;22.50;92.80;;;;;;5105633;27;20437;-72
2022/07/14 07:01:16;;;;;;;3.63;2.80;;;22.60;92.70;;;;;;5106665;28;20882;-72
2022/07/14 07:04:01;;;;;;;5.33;3.20;;;22.70;92.30;;;;;;5105020;27;20553;-73
2022/07/14 07:06:46;;;;;;;5.73;3.20;;;22.80;90.60;;;;;;5113689;27;20460;-72
2022/07/14 07:09:31;;;;;;;5.23;3.00;;;22.80;90.00;;;;;;5108601;28;20486;-72
2022/07/14 07:12:19;;;;;;;6.77;2.70;;;22.90;87.30;;;;;;5109214;27;20525;-73
2022/07/14 07:15:06;;;;;;;3.90;2.60;;;23.00;85.40;;;;;;5108334;27;20543;-73
2022/07/14 07:17:52;;;;;;;6.57;2.90;;;23.10;83.20;;;;;;5111676;28;20851;-72
2022/07/14 07:20:38;;;;;;;6.80;2.60;;;23.10;82.70;;;;;;5106152;28;20441;-73
2022/07/14 07:23:24;;;;;;;7.20;2.90;;;23.20;83.60;;;;;;5102390;28;20437;-73
2022/07/14 07:26:10;;;;;;;5.70;3.10;;;23.30;79.00;;;;;;5109721;28;20866;-72
2022/07/14 07:28:57;;;;;;;6.23;3.00;;;23.30;74.60;;;;;;5112714;28;20817;-73
2022/07/14 07:31:42;;;;;;;6.10;3.00;;;23.40;75.70;;;;;;5111947;27;20518;-72
2022/07/14 07:34:28;;;;;;;6.10;2.80;;;23.50;77.40;;;;;;5105943;28;20428;-73
2022/07/14 07:37:14;;;;;;;3.37;2.63;;;23.60;77.30;;;;;;5110898;27;20455;-73
2022/07/14 07:40:00;;;;;;;4.33;2.73;;;23.70;75.00;;;;;;5112293;28;20444;-73
2022/07/14 07:42:46;;;;;;;8.90;4.00;;;23.70;75.30;;;;;;5103924;27;20460;-73
2022/07/14 07:45:33;;;;;;;7.67;4.50;;;23.60;73.50;;;;;;5109544;27;20813;-73
2022/07/14 07:48:19;;;;;;;8.50;4.27;;;23.70;72.80;;;;;;5103114;28;20441;-72
2022/07/14 07:51:05;;;;;;;10.70;5.00;;;23.70;76.00;;;;;;5110070;28;20829;-73
2022/07/14 07:53:50;;;;;;;7.97;4.60;;;23.70;74.00;;;;;;5104616;27;20475;-73
2022/07/14 07:56:36;;;;;;;11.20;3.57;;;23.80;70.80;;;;;;5108013;27;20476;-73
2022/07/14 07:59:22;;;;;;;6.50;3.63;;;23.80;70.10;;;;;;5108671;28;20518;-73
2022/07/14 08:02:09;;;;;;;8.67;3.57;;;23.90;71.40;;;;;;5107755;28;20448;-73
2022/07/14 08:04:55;;;;;;;6.50;3.20;;;24.00;73.50;;;;;;5110034;28;20436;-73
2022/07/14 08:07:40;;;;;;;8.47;3.80;;;24.00;71.50;;;;;;5110050;27;20448;-73
2022/07/14 08:10:27;;;;;;;9.80;3.60;;;24.00;67.40;;;;;;5101887;28;20660;-73
2022/07/14 08:13:12;;;;;;;8.10;3.50;;;24.00;66.90;;;;;;5103132;28;20486;-73
2022/07/14 08:15:59;;;;;;;7.57;3.90;;;24.00;67.00;;;;;;5110612;27;20609;-73
2022/07/14 08:18:46;;;;;;;8.57;3.97;;;24.00;66.60;;;;;;5105822;27;20453;-74
2022/07/14 08:21:32;;;;;;;10.20;3.60;;;24.00;66.70;;;;;;5105788;28;20444;-74
2022/07/14 08:24:18;;;;;;;5.13;3.50;;;24.00;66.00;;;;;;5099482;28;20429;-74
2022/07/14 08:27:05;;;;;;;11.77;3.90;;;24.10;66.30;;;;;;5109625;28;20465;-73
2022/07/14 08:29:50;;;;;;;8.27;3.80;;;24.30;64.80;;;;;;5106328;27;20461;-72
2022/07/14 08:32:38;;;;;;;8.60;4.30;;;24.40;63.70;;;;;;5107234;27;20445;-73
2022/07/14 08:35:26;;;;;;;13.43;4.20;;;24.60;64.30;;;;;;5106597;28;20622;-73
2022/07/14 08:38:12;;;;;;;16.73;4.30;;;24.60;60.20;;;;;;5114107;28;20550;-73
2022/07/14 08:40:57;;;;;;;7.37;3.53;;;24.70;60.90;;;;;;5111763;28;20428;-72
2022/07/14 08:43:45;;;;;;;12.33;4.80;;;24.80;63.10;;;;;;5105885;28;20447;-72
2022/07/14 08:46:32;;;;;;;11.00;3.90;;;25.00;59.60;;;;;;5108856;27;20468;-72
2022/07/14 08:49:18;;;;;;;9.63;3.90;;;25.00;61.70;;;;;;5110804;27;20436;-73
2022/07/14 08:52:05;;;;;;;8.77;4.40;;;25.10;58.70;;;;;;5101862;27;20462;-72
2022/07/14 08:54:52;;;;;;;13.33;5.40;;;25.20;60.20;;;;;;5104171;28;20526;-72
2022/07/14 08:57:37;;;;;;;6.87;4.13;;;25.30;56.80;;;;;;5103009;28;20413;-73
2022/07/14 09:00:23;;;;;;;11.90;4.40;;;25.50;59.10;;;;;;5113376;27;20794;-73
2022/07/14 09:03:09;;;;;;;9.37;3.80;;;25.50;55.40;;;;;;5095304;28;20429;-73
2022/07/14 09:05:54;;;;;;;7.00;4.03;;;25.50;57.70;;;;;;5104586;28;20441;-73
2022/07/14 09:08:56;;;;;;;9.77;4.20;;;25.60;56.80;;;;;;5104276;28;21214;-72
2022/07/14 09:11:50;;;;;;;5.90;3.80;;;25.70;52.40;;;;;;5105518;27;20583;-73
2022/07/14 09:17:53;;;;;;;5.63;3.57;;;25.90;50.60;;;;;;5021985;28;20984;-72
2022/07/14 09:20:39;;;;;;;5.50;3.50;;;25.80;48.40;;;;;;5102219;27;20768;-72
2022/07/14 09:23:29;;;;;;;4.67;3.50;;;25.80;48.00;;;;;;5107309;28;20528;-73
2022/07/14 09:26:18;;;;;;;10.50;3.50;;;25.90;50.50;;;;;;5093117;28;20438;-72
2022/07/14 09:29:04;;;;;;;9.30;3.90;;;26.00;52.40;;;;;;5115276;27;20467;-72
2022/07/14 09:31:50;;;;;;;6.70;2.90;;;26.10;50.60;;;;;;5114124;27;20961;-72
2022/07/14 09:34:36;;;;;;;9.30;3.57;;;26.10;49.40;;;;;;5097582;28;20963;-73
2022/07/14 09:37:25;;;;;;;6.13;3.97;;;26.10;50.40;;;;;;5101784;28;20497;-73
2022/07/14 09:40:15;;;;;;;5.07;3.33;;;26.00;48.10;;;;;;5100527;28;20869;-72
2022/07/14 09:43:04;;;;;;;7.13;3.63;;;26.00;50.60;;;;;;5105175;28;20946;-72
2022/07/14 09:45:50;;;;;;;6.80;3.80;;;26.00;49.70;;;;;;5112315;28;20651;-72
2022/07/14 09:48:36;;;;;;;6.37;3.57;;;25.90;48.80;;;;;;5109565;28;21667;-73
2022/07/14 09:51:22;;;;;;;4.33;3.50;;;26.00;49.50;;;;;;5098986;28;20495;-73
2022/07/14 09:54:07;;;;;;;5.20;3.30;;;26.00;51.20;;;;;;5101000;28;20933;-73
2022/07/14 09:56:53;;;;;;;4.73;3.50;;;26.10;48.40;;;;;;5111189;27;20837;-73
2022/07/14 09:59:47;;;;;;;7.53;3.60;;;26.30;48.00;;;;;;5115877;27;20478;-73
2022/07/14 10:02:35;;;;;;;7.50;4.10;;;26.40;48.30;;;;;;5102781;28;20421;-73
2022/07/14 10:05:21;;;;;;;14.23;4.07;;;26.60;46.20;;;;;;5103611;28;20436;-73
2022/07/14 10:08:08;;;;;;;12.70;4.20;;;26.50;46.90;;;;;;5108824;28;20565;-73
2022/07/14 10:10:55;;;;;;;6.63;3.97;;;26.60;49.00;;;;;;5103868;27;20509;-73
2022/07/14 10:13:41;;;;;;;6.67;3.90;;;26.60;49.00;;;;;;5114086;27;20433;-74
2022/07/14 10:16:32;;;;;;;4.50;3.60;;;26.80;49.00;;;;;;5105053;28;20496;-75
2022/07/14 10:19:20;;;;;;;7.07;3.80;;;26.90;46.40;;;;;;5104346;28;20421;-75
2022/07/14 10:22:06;;;;;;;5.07;3.80;;;27.10;46.60;;;;;;5090906;28;20422;-75
2022/07/14 10:24:53;;;;;;;6.37;3.70;;;27.20;45.00;;;;;;5102037;28;20424;-75
2022/07/14 10:27:40;;;;;;;9.23;4.03;;;27.40;45.80;;;;;;5119715;27;20443;-75
2022/07/14 10:30:44;;;;;;;5.30;3.67;;;27.40;43.40;;;;;;5117380;28;20536;-74
2022/07/14 10:33:41;;;;;;;7.50;4.00;;;27.50;43.20;;;;;;5105190;28;20432;-75
2022/07/14 10:36:34;;;;;;;7.07;3.60;;;27.60;44.20;;;;;;5111566;28;20476;-75
2022/07/14 10:39:27;;;;;;;10.40;4.17;;;27.70;45.10;;;;;;5110185;28;20425;-74
2022/07/14 10:42:23;;;;;;;8.13;3.70;;;27.90;41.20;;;;;;5101501;28;20865;-75
2022/07/14 10:45:09;;;;;;;18.03;5.30;;;28.00;41.40;;;;;;5111432;28;20521;-75
2022/07/14 10:47:55;;;;;;;7.70;4.10;;;27.90;38.50;;;;;;5111487;28;20499;-75
2022/07/14 10:50:42;;;;;;;5.77;3.80;;;27.90;39.80;;;;;;5099764;28;21083;-75
2022/07/14 10:53:29;;;;;;;5.10;2.90;;;28.00;40.30;;;;;;5104277;28;20433;-74
2022/07/14 10:56:25;;;;;;;7.50;3.53;;;28.10;39.40;;;;;;5108902;28;20476;-75
2022/07/14 10:59:36;;;;;;;11.50;4.03;;;27.90;37.90;;;;;;5109559;28;20475;-74
2022/07/14 11:02:36;;;;;;;6.50;3.40;;;27.90;40.00;;;;;;5107815;28;20449;-75
2022/07/14 11:05:21;;;;;;;7.57;3.53;;;27.80;41.50;;;;;;5131512;28;20416;-74
2022/07/14 11:08:12;;;;;;;6.40;4.00;;;27.70;39.60;;;;;;5131137;28;20539;-74
2022/07/14 11:10:59;;;;;;;6.27;3.27;;;27.70;41.20;;;;;;5100372;28;20974;-74
2022/07/14 11:14:11;;;;;;;8.60;4.33;;;27.70;39.70;;;;;;5090866;28;20556;-74
2022/07/14 11:16:59;;;;;;;4.20;3.37;;;27.60;40.70;;;;;;5092408;28;20577;-75
2022/07/14 11:19:53;;;;;;;7.60;3.60;;;27.60;42.30;;;;;;5101445;28;20441;-75
2022/07/14 11:22:40;;;;;;;7.30;3.83;;;27.60;42.00;;;;;;5095900;28;20428;-75
2022/07/14 11:25:28;;;;;;;8.87;3.80;;;27.60;43.00;;;;;;5105072;28;20479;-75
2022/07/14 11:28:39;;;;;;;6.13;3.53;;;27.60;42.20;;;;;;5111661;28;20937;-74
2022/07/14 11:31:25;;;;;;;5.30;3.70;;;27.70;40.80;;;;;;5099615;28;20432;-74
2022/07/14 11:37:25;;;;;;;4.20;3.20;;;27.60;41.40;;;;;;5110523;28;20476;-74
2022/07/14 11:40:43;;;;;;;10.60;3.07;;;27.60;40.80;;;;;;5108355;27;20456;-75
2022/07/14 11:43:53;;;;;;;4.67;3.10;;;27.70;43.10;;;;;;5093961;28;20418;-75
2022/07/14 11:46:58;;;;;;;7.90;3.57;;;27.80;40.80;;;;;;5093844;28;20942;-73
2022/07/14 11:49:53;;;;;;;6.40;2.87;;;27.90;43.10;;;;;;5101765;27;21013;-74
2022/07/14 11:52:41;;;;;;;4.10;3.03;;;28.10;42.10;;;;;;5104461;28;20434;-73
2022/07/14 11:55:27;;;;;;;17.17;3.23;;;28.30;37.90;;;;;;5108162;28;20529;-73
2022/07/14 11:58:16;;;;;;;5.57;3.43;;;28.60;36.70;;;;;;5102856;28;20607;-73
2022/07/14 12:01:03;;;;;;;6.40;3.00;;;28.80;35.70;;;;;;5106399;28;20445;-72
2022/07/14 12:03:49;;;;;;;4.80;3.07;;;29.10;34.80;;;;;;5112549;27;20436;-73
2022/07/14 12:06:40;;;;;;;14.10;3.30;;;29.40;34.90;;;;;;5110532;28;20605;-72
2022/07/14 12:09:29;;;;;;;6.80;3.23;;;29.60;32.40;;;;;;5102721;27;20527;-73
2022/07/14 12:12:16;;;;;;;11.57;3.40;;;29.60;32.80;;;;;;5108532;28;20983;-72
2022/07/14 12:15:04;;;;;;;7.90;3.47;;;29.40;32.00;;;;;;5109991;28;20445;-72
2022/07/14 12:17:51;;;;;;;6.30;2.93;;;29.10;33.50;;;;;;5102140;27;20547;-72
2022/07/14 12:20:39;;;;;;;5.50;3.20;;;29.10;33.90;;;;;;5103907;28;20935;-73
2022/07/14 12:23:25;;;;;;;4.57;2.77;;;29.00;33.80;;;;;;5112426;28;20856;-72
2022/07/14 12:26:10;;;;;;;6.67;3.20;;;29.00;33.80;;;;;;5103899;28;20571;-73
2022/07/14 12:28:59;;;;;;;6.80;3.93;;;29.00;33.80;;;;;;5103703;27;21013;-73
2022/07/14 12:31:46;;;;;;;6.57;3.80;;;29.10;33.90;;;;;;5106035;28;20449;-73
2022/07/14 12:34:32;;;;;;;5.37;3.30;;;29.40;34.20;;;;;;5108587;28;20422;-73
2022/07/14 12:37:17;;;;;;;4.80;3.20;;;29.50;34.20;;;;;;5105440;28;20583;-73
2022/07/14 12:40:05;;;;;;;10.63;3.80;;;29.70;34.40;;;;;;5110008;28;20420;-73
2022/07/14 12:42:51;;;;;;;9.60;3.50;;;30.00;31.90;;;;;;5112042;28;20449;-72
2022/07/14 12:45:58;;;;;;;9.27;3.00;;;30.10;31.90;;;;;;5101727;28;20452;-73
2022/07/14 12:49:01;;;;;;;4.70;2.90;;;30.20;31.20;;;;;;5101066;28;20752;-73
2022/07/14 12:51:47;;;;;;;10.23;4.10;;;30.10;33.40;;;;;;5111953;28;20843;-73
2022/07/14 12:54:33;;;;;;;6.17;3.47;;;30.00;33.60;;;;;;5109933;28;20441;-73
2022/07/14 12:57:21;;;;;;;7.40;3.03;;;30.00;32.00;;;;;;5102412;28;20631;-72
2022/07/14 13:00:14;;;;;;;5.20;3.80;;;30.10;33.30;;;;;;5102301;28;20486;-73
2022/07/14 13:03:13;;;;;;;4.17;3.33;;;30.30;33.90;;;;;;5102118;27;20454;-72
2022/07/14 13:06:00;;;;;;;6.00;3.90;;;30.50;32.80;;;;;;5100796;28;20441;-73
2022/07/14 13:08:45;;;;;;;7.53;3.93;;;30.50;31.50;;;;;;5099256;27;20440;-73
2022/07/14 13:11:31;;;;;;;9.40;4.07;;;30.70;32.60;;;;;;5103476;28;20961;-73
2022/07/14 13:14:17;;;;;;;8.70;3.63;;;30.70;30.80;;;;;;5108294;28;20448;-73
2022/07/14 13:17:02;;;;;;;13.00;4.03;;;30.60;31.20;;;;;;5107755;27;21114;-73
2022/07/14 13:19:48;;;;;;;10.17;3.33;;;30.60;31.40;;;;;;5105420;28;20444;-72
2022/07/14 13:22:35;;;;;;;7.23;4.10;;;30.70;30.80;;;;;;5103018;27;20573;-73
2022/07/14 13:25:20;;;;;;;4.73;3.70;;;30.50;30.10;;;;;;5111483;28;20444;-73
2022/07/14 13:28:06;;;;;;;15.73;4.80;;;30.60;32.30;;;;;;5097651;27;20441;-72
2022/07/14 13:30:52;;;;;;;6.80;3.47;;;30.80;32.30;;;;;;5101711;28;20552;-73
2022/07/14 13:33:40;;;;;;;6.07;3.50;;;31.00;31.60;;;;;;5108326;28;20496;-73
2022/07/14 13:36:26;;;;;;;9.83;3.97;;;31.10;30.20;;;;;;5112778;28;20445;-73
2022/07/14 13:39:13;;;;;;;4.07;3.40;;;31.30;29.70;;;;;;5107230;28;20429;-73
2022/07/14 13:41:59;;;;;;;6.90;3.90;;;31.20;29.40;;;;;;5110367;27;20968;-73
2022/07/14 13:44:45;;;;;;;5.43;3.87;;;31.20;30.00;;;;;;5104205;28;20445;-72
2022/07/14 13:47:31;;;;;;;7.00;4.03;;;31.10;29.70;;;;;;5100022;28;20480;-72
2022/07/14 13:53:19;;;;;;;5.00;3.90;;;31.40;29.90;;;;;;5105301;28;20441;-72
2022/07/14 13:58:39;;;;;;;16.00;4.53;;;31.60;29.60;;;;;;5040897;28;20488;-73
2022/07/14 14:01:27;;;;;;;6.17;3.57;;;31.30;29.60;;;;;;5049864;28;20444;-72
2022/07/14 14:04:13;;;;;;;6.43;4.50;;;31.20;32.00;;;;;;5052682;28;20451;-73
2022/07/14 14:06:59;;;;;;;5.03;3.60;;;31.20;31.30;;;;;;5051469;28;20475;-73
2022/07/14 14:09:44;;;;;;;10.07;4.30;;;31.30;31.40;;;;;;5049821;28;20455;-73
2022/07/14 14:12:30;;;;;;;13.90;4.20;;;31.50;31.20;;;;;;5049648;28;20502;-73
2022/07/14 14:15:17;;;;;;;7.50;4.30;;;31.40;30.10;;;;;;5045564;28;20463;-73
2022/07/14 14:18:03;;;;;;;5.43;3.60;;;31.20;29.80;;;;;;5049055;28;20862;-73
2022/07/14 14:20:49;;;;;;;7.60;3.40;;;31.20;30.60;;;;;;5051769;28;20555;-73
2022/07/14 14:23:36;;;;;;;10.63;4.30;;;31.00;30.50;;;;;;5050253;28;20462;-73
2022/07/14 14:26:23;;;;;;;4.43;3.73;;;30.90;29.90;;;;;;5051649;28;20506;-73
2022/07/14 14:29:10;;;;;;;6.40;3.77;;;31.00;29.50;;;;;;5042180;28;20448;-73
2022/07/14 14:31:58;;;;;;;9.50;3.47;;;31.00;29.30;;;;;;5055380;28;20533;-73
2022/07/14 14:34:44;;;;;;;7.30;3.60;;;30.90;29.00;;;;;;5051233;28;20521;-71
2022/07/14 14:37:30;;;;;;;14.10;3.67;;;30.80;28.30;;;;;;5039960;28;20483;-72
2022/07/14 14:40:16;;;;;;;5.63;3.60;;;30.60;28.00;;;;;;5040987;28;20456;-72
2022/07/14 14:43:01;;;;;;;10.03;4.43;;;30.50;27.80;;;;;;5049915;28;20424;-72
2022/07/14 14:45:47;;;;;;;4.30;3.53;;;30.50;27.50;;;;;;5041841;28;20590;-72
2022/07/14 14:48:35;;;;;;;11.83;3.60;;;30.50;27.20;;;;;;5050251;28;20422;-72